Glencove, Washington
Current Conditions -  °F | °C
As of 3:53 PM on Wednesday 22 Oct 2014 (Local Time) from KTIW Reporting Station
Moderate Rain Moderate Rain  
Wind Chill: 56°   Ceiling: 7000
Heat Index: 56°   Visibility: 5mi
Dew Point: 54°   Wind: 5mph
Humidity: 93%   Direction: 150°SSE
Pressure: 29.64"   Gusts: NA
Location:  47.2986°N, 122.616°W
Report Text: KTIW 222253Z 15004KT 5SM RA BR OVC070 13/12 A2964 RMK AO2 SLP035 P0012 T01330122
Loading
Personal Weather Stations






























Interactive Weather Map
Tropical Storm Tracking
New forecast layout! Learn more

10-Day Weather Forecast

Advertisements
Track Severe Weather on mobile